createdAt,value
2024-01-27T00:00:21.114Z,11.20
2024-01-27T00:01:21.088Z,8.50
2024-01-27T00:02:21.045Z,8.30
2024-01-27T00:03:21.070Z,5.50
2024-01-27T00:04:21.048Z,10.70
2024-01-27T00:05:21.164Z,9.90
2024-01-27T00:06:21.058Z,8.00
2024-01-27T00:07:21.032Z,6.90
2024-01-27T00:08:20.964Z,9.90
2024-01-27T00:09:20.977Z,9.20
2024-01-27T00:10:20.937Z,9.40
2024-01-27T00:11:22.135Z,9.40
2024-01-27T00:12:20.990Z,9.20
2024-01-27T00:13:20.901Z,8.30
2024-01-27T00:14:20.906Z,9.30
2024-01-27T00:15:20.918Z,9.00
2024-01-27T00:16:20.863Z,8.40
2024-01-27T00:17:20.848Z,11.10
2024-01-27T00:18:20.905Z,8.10
2024-01-27T00:19:21.054Z,11.90
2024-01-27T00:20:20.860Z,8.10
2024-01-27T00:21:20.874Z,7.90
2024-01-27T00:22:20.785Z,9.30
2024-01-27T00:23:20.791Z,13.00
2024-01-27T00:24:20.799Z,9.20
2024-01-27T00:25:20.743Z,7.60
2024-01-27T00:26:20.750Z,9.80
2024-01-27T00:27:20.844Z,9.10
2024-01-27T00:28:20.718Z,8.70
2024-01-27T00:29:20.701Z,8.70
2024-01-27T00:30:20.713Z,11.70
2024-01-27T00:31:20.665Z,9.00
2024-01-27T00:32:20.650Z,9.00
2024-01-27T00:33:20.796Z,9.50
2024-01-27T00:34:20.757Z,10.10
2024-01-27T00:35:20.617Z,10.80
2024-01-27T00:36:20.667Z,11.30
2024-01-27T00:37:20.642Z,10.20
2024-01-27T00:38:20.591Z,13.00
2024-01-27T00:39:20.621Z,9.90
2024-01-27T00:40:20.552Z,6.80
2024-01-27T00:41:20.559Z,9.60
2024-01-27T00:42:20.574Z,12.30
2024-01-27T00:43:20.518Z,8.60
2024-01-27T00:44:20.506Z,8.30
2024-01-27T00:45:20.583Z,10.30
2024-01-27T00:46:20.480Z,9.10
2024-01-27T00:47:20.558Z,9.40
2024-01-27T00:48:20.731Z,8.10
2024-01-27T00:49:20.601Z,11.10
2024-01-27T00:50:20.439Z,12.00
2024-01-27T00:51:20.489Z,11.20
2024-01-27T00:52:20.413Z,10.80
2024-01-27T00:53:20.421Z,9.30
2024-01-27T00:54:20.424Z,14.20
2024-01-27T00:55:20.372Z,10.40
2024-01-27T00:56:20.414Z,9.10
2024-01-27T00:57:20.357Z,10.40
2024-01-27T00:58:20.326Z,8.40
2024-01-27T00:59:20.315Z,12.00
2024-01-27T01:00:20.373Z,11.00
2024-01-27T01:01:20.420Z,9.20
2024-01-27T01:02:20.277Z,10.90
2024-01-27T01:03:20.431Z,11.20
2024-01-27T01:04:20.278Z,10.70
2024-01-27T01:05:20.325Z,10.90
2024-01-27T01:06:20.389Z,8.90
2024-01-27T01:07:20.216Z,10.90
2024-01-27T01:08:20.205Z,13.20
2024-01-27T01:09:20.251Z,10.50
2024-01-27T01:10:20.179Z,8.80
2024-01-27T01:11:20.199Z,10.30
2024-01-27T01:12:20.201Z,7.30
2024-01-27T01:13:20.140Z,11.00
2024-01-27T01:14:20.135Z,11.60
2024-01-27T01:15:20.202Z,12.30
2024-01-27T01:16:20.129Z,12.50
2024-01-27T01:17:20.105Z,18.20
2024-01-27T01:18:20.184Z,16.70
2024-01-27T01:19:20.098Z,18.80
2024-01-27T01:20:20.170Z,17.40
2024-01-27T01:21:20.287Z,22.30
2024-01-27T01:22:20.029Z,25.80
2024-01-27T01:23:20.017Z,76.60
2024-01-27T01:24:20.072Z,70.10
2024-01-27T01:25:20.099Z,58.50
2024-01-27T01:26:19.979Z,30.80
2024-01-27T01:27:20.046Z,27.80
2024-01-27T01:28:19.997Z,31.30
2024-01-27T01:29:19.936Z,27.60
2024-01-27T01:30:20.164Z,26.50
2024-01-27T01:31:20.019Z,27.50
2024-01-27T01:32:19.931Z,19.90
2024-01-27T01:33:20.073Z,18.90
2024-01-27T01:34:20.007Z,20.10
2024-01-27T01:35:19.886Z,15.30
2024-01-27T01:36:19.914Z,17.30
2024-01-27T01:37:19.843Z,20.90
2024-01-27T01:38:19.842Z,25.70
2024-01-27T01:39:19.853Z,30.20
2024-01-27T01:40:19.865Z,27.10
2024-01-27T01:41:19.819Z,30.30
2024-01-27T01:42:19.841Z,28.50
2024-01-27T01:43:19.861Z,25.20
2024-01-27T01:44:19.769Z,24.90
2024-01-27T01:45:19.772Z,22.60
2024-01-27T01:46:19.759Z,19.80
2024-01-27T01:47:19.712Z,19.90
2024-01-27T01:48:19.864Z,22.10
2024-01-27T01:49:19.766Z,17.70
2024-01-27T01:50:19.745Z,19.40
2024-01-27T01:51:19.729Z,17.30
2024-01-27T01:52:19.646Z,14.50
2024-01-27T01:53:19.660Z,19.60
2024-01-27T01:54:19.714Z,21.10
2024-01-27T01:55:19.613Z,23.40
2024-01-27T01:56:19.616Z,20.90
2024-01-27T01:57:19.724Z,18.80
2024-01-27T01:58:19.590Z,18.80
2024-01-27T01:59:19.589Z,19.10
2024-01-27T02:00:19.697Z,17.10
2024-01-27T02:01:19.976Z,19.00
2024-01-27T02:02:19.528Z,16.00
2024-01-27T02:03:19.552Z,15.00
2024-01-27T02:04:19.514Z,18.50
2024-01-27T02:05:19.500Z,17.60
2024-01-27T02:06:19.599Z,13.50
2024-01-27T02:07:19.470Z,11.90
2024-01-27T02:08:19.461Z,20.10
2024-01-27T02:09:19.451Z,16.70
2024-01-27T02:10:19.433Z,16.50
2024-01-27T02:11:19.410Z,13.60
2024-01-27T02:12:19.420Z,12.10
2024-01-27T02:13:19.419Z,12.70
2024-01-27T02:14:19.368Z,13.60
2024-01-27T02:15:19.398Z,13.80
2024-01-27T02:16:19.382Z,12.20
2024-01-27T02:17:19.354Z,12.80
2024-01-27T02:18:19.608Z,11.70
2024-01-27T02:19:19.420Z,10.00
2024-01-27T02:20:19.337Z,13.60
2024-01-27T02:21:19.313Z,11.80
2024-01-27T02:22:19.293Z,11.40
2024-01-27T02:23:19.370Z,12.80
2024-01-27T02:24:19.319Z,11.80
2024-01-27T02:25:19.233Z,11.00
2024-01-27T02:26:19.219Z,12.10
2024-01-27T02:27:19.242Z,9.10
2024-01-27T02:28:19.189Z,9.40
2024-01-27T02:29:19.199Z,11.60
2024-01-27T02:30:19.240Z,9.50
2024-01-27T02:31:19.190Z,10.60
2024-01-27T02:32:19.153Z,13.00
2024-01-27T02:33:19.305Z,12.20
2024-01-27T02:34:19.337Z,13.10
2024-01-27T02:35:19.239Z,13.90
2024-01-27T02:36:19.133Z,12.50
2024-01-27T02:37:19.077Z,10.50
2024-01-27T02:38:19.062Z,12.00
2024-01-27T02:39:19.085Z,10.70
2024-01-27T02:40:19.044Z,8.20
2024-01-27T02:41:19.726Z,11.60
2024-01-27T02:42:19.055Z,11.30
2024-01-27T02:43:19.005Z,14.30
2024-01-27T02:44:19.050Z,13.60
2024-01-27T02:45:19.024Z,15.40
2024-01-27T02:46:18.992Z,22.10
2024-01-27T02:47:18.948Z,18.80
2024-01-27T02:48:19.135Z,17.80
2024-01-27T02:49:19.104Z,20.10
2024-01-27T02:50:18.926Z,19.20
2024-01-27T02:51:18.934Z,12.40
2024-01-27T02:52:18.904Z,10.40
2024-01-27T02:53:18.891Z,13.40
2024-01-27T02:54:18.879Z,12.20
2024-01-27T02:55:18.902Z,11.50
2024-01-27T02:56:18.835Z,9.30
2024-01-27T02:57:18.824Z,11.40
2024-01-27T02:58:18.799Z,14.10
2024-01-27T02:59:18.795Z,10.70
2024-01-27T03:00:18.891Z,10.40
2024-01-27T03:01:18.836Z,10.50
2024-01-27T03:02:18.783Z,9.60
2024-01-27T03:03:18.926Z,11.60
2024-01-27T03:04:18.837Z,10.30
2024-01-27T03:05:18.763Z,12.30
2024-01-27T03:06:18.770Z,9.60
2024-01-27T03:07:18.686Z,14.20
2024-01-27T03:08:18.672Z,12.20
2024-01-27T03:09:18.698Z,9.40
2024-01-27T03:10:18.643Z,13.10
2024-01-27T03:11:18.647Z,13.60
2024-01-27T03:12:18.661Z,11.20
2024-01-27T03:13:18.612Z,11.20
2024-01-27T03:14:18.678Z,11.40
2024-01-27T03:15:18.632Z,12.90
2024-01-27T03:16:18.584Z,10.40
2024-01-27T03:17:18.623Z,12.80
2024-01-27T03:18:18.727Z,10.90
2024-01-27T03:19:18.904Z,13.10
2024-01-27T03:20:18.528Z,11.60
2024-01-27T03:21:18.571Z,11.60
2024-01-27T03:22:18.579Z,12.00
2024-01-27T03:23:18.498Z,13.80
2024-01-27T03:24:18.493Z,13.50
2024-01-27T03:25:18.464Z,11.10
2024-01-27T03:26:18.497Z,12.50
2024-01-27T03:27:18.473Z,13.20
2024-01-27T03:28:18.447Z,11.40
2024-01-27T03:29:18.406Z,12.20
2024-01-27T03:30:18.435Z,13.50
2024-01-27T03:31:18.380Z,13.90
2024-01-27T03:32:18.369Z,14.20
2024-01-27T03:33:18.512Z,13.00
2024-01-27T03:34:18.445Z,18.10
2024-01-27T03:35:18.350Z,14.10
2024-01-27T03:36:18.360Z,12.90
2024-01-27T03:37:18.344Z,20.30
2024-01-27T03:38:18.313Z,14.40
2024-01-27T03:39:18.399Z,15.70
2024-01-27T03:40:18.275Z,12.90
2024-01-27T03:41:18.258Z,15.40
2024-01-27T03:42:18.286Z,16.40
2024-01-27T03:43:18.304Z,14.60
2024-01-27T03:44:18.228Z,12.80
2024-01-27T03:45:18.248Z,13.70
2024-01-27T03:46:18.192Z,13.60
2024-01-27T03:47:18.199Z,13.60
2024-01-27T03:48:18.240Z,13.10
2024-01-27T03:49:18.390Z,10.90
2024-01-27T03:50:18.179Z,13.70
2024-01-27T03:51:18.180Z,13.30
2024-01-27T03:52:18.130Z,14.90
2024-01-27T03:53:18.100Z,11.80
2024-01-27T03:54:18.304Z,14.80
2024-01-27T03:55:18.076Z,14.20
2024-01-27T03:56:18.070Z,12.10
2024-01-27T03:57:18.115Z,13.30
2024-01-27T03:58:18.043Z,14.60
2024-01-27T03:59:18.028Z,14.50
2024-01-27T04:00:18.086Z,13.10
2024-01-27T04:01:18.191Z,13.50
2024-01-27T04:02:18.094Z,13.50
2024-01-27T04:03:18.200Z,11.30
2024-01-27T04:04:18.089Z,15.50
2024-01-27T04:05:17.969Z,13.30
2024-01-27T04:06:18.030Z,12.70
2024-01-27T04:07:18.002Z,13.50
2024-01-27T04:08:17.920Z,11.00
2024-01-27T04:09:17.924Z,14.40
2024-01-27T04:10:17.929Z,10.60
2024-01-27T04:11:17.890Z,9.40
2024-01-27T04:12:17.874Z,11.40
2024-01-27T04:13:17.855Z,12.30
2024-01-27T04:14:17.838Z,14.50
2024-01-27T04:15:17.900Z,13.10
2024-01-27T04:16:17.830Z,10.10
2024-01-27T04:17:17.852Z,14.70
2024-01-27T04:18:17.925Z,10.90
2024-01-27T04:19:17.965Z,14.20
2024-01-27T04:20:17.825Z,12.10
2024-01-27T04:21:17.838Z,11.40
2024-01-27T04:22:17.772Z,12.50
2024-01-27T04:23:17.724Z,14.40
2024-01-27T04:24:17.777Z,12.20
2024-01-27T04:25:17.731Z,13.20
2024-01-27T04:26:17.704Z,13.60
2024-01-27T04:27:17.715Z,11.60
2024-01-27T04:28:17.676Z,12.50
2024-01-27T04:29:17.721Z,13.70
2024-01-27T04:30:17.697Z,9.30
2024-01-27T04:31:17.645Z,12.80
2024-01-27T04:32:17.619Z,12.00
2024-01-27T04:33:17.820Z,11.00
2024-01-27T04:34:17.676Z,9.60
2024-01-27T04:35:17.601Z,12.50
2024-01-27T04:36:17.664Z,13.00
2024-01-27T04:37:17.577Z,16.30
2024-01-27T04:38:17.545Z,12.70
2024-01-27T04:39:17.611Z,12.80
2024-01-27T04:40:17.536Z,12.10
2024-01-27T04:41:17.515Z,13.70
2024-01-27T04:42:17.553Z,10.80
2024-01-27T04:43:17.482Z,12.30
2024-01-27T04:44:17.520Z,13.60
2024-01-27T04:45:17.574Z,11.20
2024-01-27T04:46:17.458Z,9.50
2024-01-27T04:47:17.432Z,12.50
2024-01-27T04:48:17.635Z,13.00
2024-01-27T04:49:17.569Z,11.30
2024-01-27T04:50:17.396Z,15.30
2024-01-27T04:51:17.445Z,13.10
2024-01-27T04:52:17.373Z,12.20
2024-01-27T04:53:17.399Z,12.30
2024-01-27T04:54:17.388Z,14.90
2024-01-27T04:55:17.344Z,12.80
2024-01-27T04:56:17.316Z,9.80
2024-01-27T04:57:17.426Z,8.60
2024-01-27T04:58:17.306Z,12.30
2024-01-27T04:59:17.281Z,12.50
2024-01-27T05:00:17.319Z,10.00
2024-01-27T05:01:17.292Z,8.50
2024-01-27T05:02:17.276Z,11.50
2024-01-27T05:03:17.326Z,9.90
2024-01-27T05:04:17.352Z,12.70
2024-01-27T05:05:17.204Z,9.50
2024-01-27T05:06:17.248Z,11.50
2024-01-27T05:07:17.375Z,11.10
2024-01-27T05:08:17.190Z,12.20
2024-01-27T05:09:17.207Z,11.00
2024-01-27T05:10:17.145Z,11.30
2024-01-27T05:11:17.137Z,12.20
2024-01-27T05:12:17.173Z,11.90
2024-01-27T05:13:17.123Z,14.00
2024-01-27T05:14:17.112Z,11.60
2024-01-27T05:15:17.091Z,12.50
2024-01-27T05:16:17.074Z,13.10
2024-01-27T05:17:17.071Z,11.60
2024-01-27T05:18:17.152Z,12.70
2024-01-27T05:19:17.096Z,8.90
2024-01-27T05:20:17.047Z,11.70
2024-01-27T05:21:17.032Z,12.00
2024-01-27T05:22:17.009Z,13.10
2024-01-27T05:23:17.077Z,12.50
2024-01-27T05:24:17.024Z,11.20
2024-01-27T05:25:16.990Z,10.20
2024-01-27T05:26:16.994Z,11.80
2024-01-27T05:27:16.984Z,10.80
2024-01-27T05:28:16.929Z,12.30
2024-01-27T05:29:16.929Z,12.60
2024-01-27T05:30:16.962Z,9.60
2024-01-27T05:31:16.912Z,11.90
2024-01-27T05:32:16.899Z,10.10
2024-01-27T05:33:17.017Z,13.80
2024-01-27T05:34:16.989Z,13.60
2024-01-27T05:35:16.832Z,9.90
2024-01-27T05:36:16.892Z,12.60
2024-01-27T05:37:16.804Z,15.60
2024-01-27T05:38:16.792Z,11.50
2024-01-27T05:39:16.856Z,10.90
2024-01-27T05:40:16.813Z,13.60
2024-01-27T05:41:16.783Z,11.20
2024-01-27T05:42:16.796Z,11.30
2024-01-27T05:43:16.735Z,10.70
2024-01-27T05:44:16.720Z,15.00
2024-01-27T05:45:16.805Z,12.00
2024-01-27T05:46:16.705Z,13.30
2024-01-27T05:47:16.692Z,8.80
2024-01-27T05:48:16.886Z,8.70
2024-01-27T05:49:16.891Z,14.30
2024-01-27T05:50:16.693Z,8.80
2024-01-27T05:51:16.656Z,13.30
2024-01-27T05:52:24.556Z,17.10
2024-01-27T05:53:16.609Z,11.90
2024-01-27T05:54:16.617Z,12.70
2024-01-27T05:55:16.610Z,13.90
2024-01-27T05:56:16.562Z,13.20
2024-01-27T05:57:16.582Z,13.10
2024-01-27T05:58:16.546Z,11.40
2024-01-27T05:59:16.523Z,10.60
2024-01-27T06:00:16.558Z,10.40
2024-01-27T06:01:16.541Z,16.40
2024-01-27T06:02:16.486Z,10.50
2024-01-27T06:03:16.628Z,10.60
2024-01-27T06:04:16.610Z,12.60
2024-01-27T06:05:16.463Z,14.50
2024-01-27T06:06:16.551Z,14.60
2024-01-27T06:07:16.654Z,13.70
2024-01-27T06:08:16.404Z,12.70
2024-01-27T06:09:16.458Z,13.10
2024-01-27T06:10:16.400Z,11.30
2024-01-27T06:11:16.371Z,10.90
2024-01-27T06:12:16.510Z,9.40
2024-01-27T06:13:16.366Z,14.70
2024-01-27T06:14:16.346Z,10.00
2024-01-27T06:15:16.424Z,12.50
2024-01-27T06:16:16.310Z,12.90
2024-01-27T06:17:16.335Z,13.20
2024-01-27T06:18:16.523Z,11.50
2024-01-27T06:19:16.482Z,9.80
2024-01-27T06:20:16.364Z,13.50
2024-01-27T06:21:16.370Z,15.10
2024-01-27T06:22:16.252Z,12.10
2024-01-27T06:23:16.243Z,12.50
2024-01-27T06:24:16.329Z,13.60
2024-01-27T06:25:16.201Z,13.20
2024-01-27T06:26:16.180Z,11.80
2024-01-27T06:27:16.197Z,12.10
2024-01-27T06:28:16.171Z,15.80
2024-01-27T06:29:16.160Z,11.20
2024-01-27T06:30:16.169Z,11.60
2024-01-27T06:31:16.117Z,13.40
2024-01-27T06:32:16.102Z,15.70
2024-01-27T06:33:16.254Z,14.10
2024-01-27T06:34:16.201Z,14.60
2024-01-27T06:35:16.164Z,15.70
2024-01-27T06:36:16.130Z,15.10
2024-01-27T06:37:16.041Z,15.10
2024-01-27T06:38:16.043Z,13.00
2024-01-27T06:39:16.069Z,13.10
2024-01-27T06:40:16.096Z,12.10
2024-01-27T06:41:15.991Z,15.40
2024-01-27T06:42:16.087Z,13.60
2024-01-27T06:43:15.995Z,13.10
2024-01-27T06:44:15.947Z,12.30
2024-01-27T06:45:16.221Z,12.80
2024-01-27T06:46:15.925Z,12.30
2024-01-27T06:47:15.929Z,14.90
2024-01-27T06:48:16.075Z,13.00
2024-01-27T06:49:15.991Z,9.60
2024-01-27T06:50:16.093Z,11.60
2024-01-27T06:51:16.078Z,12.80
2024-01-27T06:52:15.864Z,14.80
2024-01-27T06:53:15.858Z,12.10
2024-01-27T06:54:15.919Z,10.50
2024-01-27T06:55:16.194Z,15.80
2024-01-27T06:56:15.832Z,14.30
2024-01-27T06:57:15.844Z,15.40
2024-01-27T06:58:15.781Z,14.30
2024-01-27T06:59:15.758Z,10.70
2024-01-27T07:00:17.309Z,16.20
2024-01-27T07:01:15.821Z,13.40
2024-01-27T07:02:15.731Z,9.00
2024-01-27T07:03:15.847Z,13.20
2024-01-27T07:04:15.878Z,7.90
2024-01-27T07:05:16.329Z,10.40
2024-01-27T07:06:15.822Z,10.10
2024-01-27T07:07:15.727Z,11.90
2024-01-27T07:08:15.647Z,10.80
2024-01-27T07:09:15.714Z,11.00
2024-01-27T07:10:16.579Z,12.30
2024-01-27T07:11:15.651Z,15.60
2024-01-27T07:12:15.660Z,17.80
2024-01-27T07:13:15.596Z,12.30
2024-01-27T07:14:15.573Z,16.00
2024-01-27T07:15:16.027Z,14.40
2024-01-27T07:16:15.589Z,14.20
2024-01-27T07:17:15.604Z,9.90
2024-01-27T07:18:15.688Z,10.80
2024-01-27T07:19:15.679Z,10.20
2024-01-27T07:20:16.173Z,12.40
2024-01-27T07:21:15.537Z,13.20
2024-01-27T07:22:15.480Z,14.90
2024-01-27T07:23:15.480Z,10.80
2024-01-27T07:24:15.472Z,10.50
2024-01-27T07:25:16.116Z,13.80
2024-01-27T07:26:15.428Z,12.80
2024-01-27T07:27:15.506Z,14.80
2024-01-27T07:28:15.398Z,13.40
2024-01-27T07:29:15.411Z,17.20
2024-01-27T07:30:16.273Z,10.70
2024-01-27T07:31:15.379Z,12.40
2024-01-27T07:32:15.359Z,11.30
2024-01-27T07:33:15.451Z,12.40
2024-01-27T07:34:15.517Z,16.00
2024-01-27T07:35:16.139Z,14.70
2024-01-27T07:36:15.330Z,13.90
2024-01-27T07:37:15.288Z,13.80
2024-01-27T07:38:15.276Z,12.30
2024-01-27T07:39:15.323Z,13.90
2024-01-27T07:40:16.076Z,11.90
2024-01-27T07:41:15.235Z,15.10
2024-01-27T07:42:15.233Z,11.40
2024-01-27T07:43:15.211Z,17.50
2024-01-27T07:44:15.219Z,10.10
2024-01-27T07:45:15.570Z,13.30
2024-01-27T07:46:15.176Z,17.50
2024-01-27T07:47:15.177Z,36.20
2024-01-27T07:48:15.328Z,28.10
2024-01-27T07:49:15.273Z,35.60
2024-01-27T07:50:15.161Z,27.10
2024-01-27T07:51:15.141Z,24.90
2024-01-27T07:52:15.101Z,22.40
2024-01-27T07:53:15.098Z,18.20
2024-01-27T07:54:15.116Z,14.90
2024-01-27T07:55:15.153Z,14.40
2024-01-27T07:56:15.049Z,10.30
2024-01-27T07:57:15.078Z,11.30
2024-01-27T07:58:15.031Z,16.60
2024-01-27T07:59:15.125Z,17.80
2024-01-27T08:00:15.149Z,11.30
2024-01-27T08:01:15.011Z,9.50
2024-01-27T08:02:14.978Z,12.80
2024-01-27T08:03:15.044Z,11.20
2024-01-27T08:04:14.967Z,24.20
2024-01-27T08:05:15.966Z,17.00
2024-01-27T08:06:14.952Z,10.30
2024-01-27T08:07:14.993Z,9.30
2024-01-27T08:08:14.926Z,11.50
2024-01-27T08:09:14.934Z,10.90
2024-01-27T08:10:14.877Z,11.40
2024-01-27T08:11:14.883Z,9.00
2024-01-27T08:12:14.934Z,8.80
2024-01-27T08:13:14.838Z,9.90
2024-01-27T08:14:14.815Z,11.80
2024-01-27T08:15:14.830Z,21.60
2024-01-27T08:16:14.793Z,17.50
2024-01-27T08:17:14.797Z,12.90
2024-01-27T08:18:14.916Z,14.70
2024-01-27T08:19:14.830Z,12.20
2024-01-27T08:20:14.778Z,19.10
2024-01-27T08:21:14.881Z,19.20
2024-01-27T08:22:14.735Z,18.50
2024-01-27T08:23:14.706Z,13.20
2024-01-27T08:24:14.724Z,20.50
2024-01-27T08:25:14.677Z,28.20
2024-01-27T08:26:14.678Z,19.00
2024-01-27T08:27:14.663Z,16.30
2024-01-27T08:28:14.643Z,16.10
2024-01-27T08:29:14.624Z,14.00
2024-01-27T08:30:14.670Z,12.60
2024-01-27T08:31:14.646Z,12.80
2024-01-27T08:32:14.640Z,12.70
2024-01-27T08:33:14.675Z,11.00
2024-01-27T08:34:14.750Z,13.50
2024-01-27T08:35:14.595Z,11.90
2024-01-27T08:36:14.604Z,9.30
2024-01-27T08:37:14.541Z,10.20
2024-01-27T08:38:14.502Z,12.00
2024-01-27T08:39:14.541Z,9.50
2024-01-27T08:40:14.556Z,9.70
2024-01-27T08:41:14.612Z,11.00
2024-01-27T08:42:14.528Z,12.10
2024-01-27T08:43:14.441Z,10.90
2024-01-27T08:44:14.469Z,12.80
2024-01-27T08:45:14.454Z,10.40
2024-01-27T08:46:14.524Z,13.70
2024-01-27T08:47:14.483Z,10.10
2024-01-27T08:48:14.559Z,10.40
2024-01-27T08:49:14.547Z,9.40
2024-01-27T08:50:14.366Z,9.30
2024-01-27T08:51:14.372Z,8.70
2024-01-27T08:52:14.328Z,8.90
2024-01-27T08:53:14.366Z,10.50
2024-01-27T08:54:14.393Z,11.30
2024-01-27T08:55:14.332Z,10.70
2024-01-27T08:56:14.314Z,8.00
2024-01-27T08:57:14.309Z,8.10
2024-01-27T08:58:14.250Z,7.20
2024-01-27T08:59:14.249Z,7.60
2024-01-27T09:00:14.309Z,10.20
2024-01-27T09:01:14.279Z,10.50
2024-01-27T09:02:14.201Z,8.10
2024-01-27T09:03:14.273Z,9.70
2024-01-27T09:04:14.212Z,6.90
2024-01-27T09:05:14.228Z,8.80
2024-01-27T09:06:14.297Z,7.10
2024-01-27T09:07:14.305Z,9.30
2024-01-27T09:08:14.148Z,8.10
2024-01-27T09:09:14.198Z,9.10
2024-01-27T09:10:14.156Z,8.90
2024-01-27T09:11:14.085Z,7.30
2024-01-27T09:12:14.069Z,8.20
2024-01-27T09:13:14.050Z,9.80
2024-01-27T09:14:14.053Z,8.60
2024-01-27T09:15:14.073Z,8.20
2024-01-27T09:16:14.063Z,8.80
2024-01-27T09:17:14.008Z,6.50
2024-01-27T09:18:14.117Z,7.80
2024-01-27T09:19:14.212Z,8.00
2024-01-27T09:20:13.988Z,11.70
2024-01-27T09:21:13.973Z,8.00
2024-01-27T09:22:13.948Z,8.30
2024-01-27T09:23:13.957Z,7.90
2024-01-27T09:24:15.900Z,8.20
2024-01-27T09:25:13.928Z,8.20
2024-01-27T09:26:14.095Z,6.60
2024-01-27T09:27:13.925Z,10.10
2024-01-27T09:28:13.902Z,8.20
2024-01-27T09:29:13.854Z,7.20
2024-01-27T09:30:13.856Z,8.00
2024-01-27T09:31:13.839Z,9.00
2024-01-27T09:32:13.850Z,7.90
2024-01-27T09:33:13.981Z,8.60
2024-01-27T09:34:13.912Z,9.20
2024-01-27T09:35:13.768Z,8.70
2024-01-27T09:36:13.832Z,9.70
2024-01-27T09:37:13.761Z,7.80
2024-01-27T09:38:13.774Z,10.80
2024-01-27T09:39:13.770Z,6.80
2024-01-27T09:40:13.711Z,6.40
2024-01-27T09:41:13.720Z,9.20
2024-01-27T09:42:13.732Z,7.80
2024-01-27T09:43:13.665Z,8.20
2024-01-27T09:44:13.651Z,7.50
2024-01-27T09:45:13.665Z,7.80
2024-01-27T09:46:13.654Z,6.20
2024-01-27T09:47:13.649Z,8.80
2024-01-27T09:48:13.818Z,7.80
2024-01-27T09:49:13.694Z,9.10
2024-01-27T09:50:13.577Z,6.40
2024-01-27T09:51:13.709Z,7.40
2024-01-27T09:52:13.558Z,8.50
2024-01-27T09:53:13.535Z,8.60
2024-01-27T09:54:16.145Z,7.30
2024-01-27T09:55:13.515Z,11.00
2024-01-27T09:56:13.493Z,8.50
2024-01-27T09:57:13.616Z,8.50
2024-01-27T09:58:13.467Z,8.80
2024-01-27T09:59:13.455Z,8.80
2024-01-27T10:00:13.502Z,10.30
2024-01-27T10:01:13.459Z,12.90
2024-01-27T10:02:13.436Z,12.30
2024-01-27T10:03:13.412Z,7.50
2024-01-27T10:04:13.425Z,9.90
2024-01-27T10:05:13.380Z,10.50
2024-01-27T10:06:13.541Z,8.60
2024-01-27T10:07:13.388Z,9.60
2024-01-27T10:08:13.333Z,7.90
2024-01-27T10:09:13.349Z,7.80
2024-01-27T10:10:13.313Z,8.70
2024-01-27T10:11:13.314Z,9.10
2024-01-27T10:12:13.312Z,8.60
2024-01-27T10:13:13.292Z,8.90
2024-01-27T10:14:13.260Z,10.50
2024-01-27T10:15:13.277Z,8.50
2024-01-27T10:16:13.265Z,9.10
2024-01-27T10:17:13.245Z,8.90
2024-01-27T10:18:13.266Z,9.00
2024-01-27T10:19:13.290Z,9.00
2024-01-27T10:20:13.215Z,9.90
2024-01-27T10:21:13.241Z,8.80
2024-01-27T10:22:13.152Z,9.90
2024-01-27T10:23:13.238Z,9.10
2024-01-27T10:24:13.148Z,9.70
2024-01-27T10:25:13.169Z,9.60
2024-01-27T10:26:13.206Z,8.40
2024-01-27T10:27:13.109Z,8.40
2024-01-27T10:28:13.094Z,11.10
2024-01-27T10:29:13.088Z,9.10
2024-01-27T10:30:13.102Z,9.50
2024-01-27T10:31:13.076Z,8.80
2024-01-27T10:32:13.048Z,10.00
2024-01-27T10:33:13.238Z,8.50
2024-01-27T10:34:13.088Z,8.30
2024-01-27T10:35:13.029Z,7.80
2024-01-27T10:36:13.154Z,8.50
2024-01-27T10:37:12.974Z,8.60
2024-01-27T10:38:12.963Z,9.00
2024-01-27T10:39:13.010Z,9.80
2024-01-27T10:40:12.958Z,8.30
2024-01-27T10:41:12.922Z,9.70
2024-01-27T10:42:12.957Z,9.70
2024-01-27T10:43:12.897Z,8.30
2024-01-27T10:44:12.919Z,9.40
2024-01-27T10:45:12.981Z,10.30
2024-01-27T10:46:12.860Z,8.80
2024-01-27T10:47:12.846Z,10.30
2024-01-27T10:48:12.986Z,8.30
2024-01-27T10:49:12.916Z,9.50
2024-01-27T10:50:12.811Z,9.10
2024-01-27T10:51:12.857Z,7.70
2024-01-27T10:52:12.801Z,10.20
2024-01-27T10:53:12.793Z,8.20
2024-01-27T10:54:12.818Z,9.60
2024-01-27T10:55:12.770Z,8.40
2024-01-27T10:56:12.744Z,9.10
2024-01-27T10:57:12.727Z,8.90
2024-01-27T10:58:12.744Z,7.90
2024-01-27T10:59:12.697Z,7.90
2024-01-27T11:00:12.715Z,9.10
2024-01-27T11:01:12.891Z,9.80
2024-01-27T11:02:12.658Z,9.10
2024-01-27T11:03:12.933Z,9.70
2024-01-27T11:04:12.831Z,10.80
2024-01-27T11:05:12.690Z,9.70
2024-01-27T11:06:12.632Z,7.60
2024-01-27T11:07:12.603Z,8.10
2024-01-27T11:08:12.594Z,9.50
2024-01-27T11:09:12.594Z,12.10
2024-01-27T11:10:12.553Z,8.70
2024-01-27T11:11:12.561Z,9.50
2024-01-27T11:12:12.604Z,11.40
2024-01-27T11:13:12.542Z,7.40
2024-01-27T11:14:12.509Z,8.00
2024-01-27T11:15:12.522Z,10.80
2024-01-27T11:16:12.479Z,7.90
2024-01-27T11:17:12.501Z,8.70
2024-01-27T11:18:12.632Z,9.00
2024-01-27T11:19:12.583Z,9.00
2024-01-27T11:20:12.539Z,10.70
2024-01-27T11:21:12.434Z,8.80
2024-01-27T11:22:12.417Z,9.70
2024-01-27T11:23:12.387Z,8.20
2024-01-27T11:24:12.418Z,10.90
2024-01-27T11:25:12.376Z,10.40
2024-01-27T11:26:12.353Z,9.70
2024-01-27T11:27:12.392Z,9.60
2024-01-27T11:28:12.330Z,8.60
2024-01-27T11:29:12.328Z,9.50
2024-01-27T11:30:12.347Z,10.20
2024-01-27T11:31:12.353Z,10.40
2024-01-27T11:32:15.187Z,9.40
2024-01-27T11:33:12.514Z,8.70
2024-01-27T11:34:12.598Z,9.50
2024-01-27T11:35:12.352Z,6.70
2024-01-27T11:36:12.307Z,10.30
2024-01-27T11:37:12.224Z,9.50
2024-01-27T11:38:12.282Z,7.40
2024-01-27T11:39:12.267Z,9.40
2024-01-27T11:40:12.287Z,8.90
2024-01-27T11:41:12.246Z,8.40
2024-01-27T11:42:12.294Z,8.20
2024-01-27T11:43:12.186Z,11.10
2024-01-27T11:44:12.231Z,8.00
2024-01-27T11:45:12.167Z,8.60
2024-01-27T11:46:12.220Z,9.70
2024-01-27T11:47:12.092Z,9.20
2024-01-27T11:48:12.240Z,9.30
2024-01-27T11:49:12.185Z,9.90
2024-01-27T11:50:12.243Z,11.70
2024-01-27T11:51:12.094Z,10.00
2024-01-27T11:52:12.047Z,10.80
2024-01-27T11:53:12.014Z,8.30
2024-01-27T11:54:12.053Z,10.00
2024-01-27T11:55:11.987Z,9.30
2024-01-27T11:56:12.025Z,9.20
2024-01-27T11:57:11.997Z,9.90
2024-01-27T11:58:11.960Z,9.90
2024-01-27T11:59:11.974Z,9.90
2024-01-27T12:00:12.013Z,7.30
2024-01-27T12:01:12.026Z,7.90
2024-01-27T12:02:11.908Z,8.40
2024-01-27T12:03:11.930Z,10.40
2024-01-27T12:04:11.880Z,9.60
2024-01-27T12:05:11.940Z,8.40
2024-01-27T12:06:14.082Z,7.40
2024-01-27T12:07:11.953Z,8.50
2024-01-27T12:08:11.833Z,9.00
2024-01-27T12:09:11.834Z,10.70
2024-01-27T12:10:11.823Z,9.00
2024-01-27T12:11:11.784Z,9.90
2024-01-27T12:12:11.816Z,9.50
2024-01-27T12:13:11.764Z,8.80
2024-01-27T12:14:11.762Z,9.90
2024-01-27T12:15:11.797Z,9.70
2024-01-27T12:16:11.723Z,8.90
2024-01-27T12:17:11.707Z,6.50
2024-01-27T12:18:11.811Z,7.90
2024-01-27T12:19:11.755Z,9.50
2024-01-27T12:20:11.714Z,7.80
2024-01-27T12:21:11.754Z,7.20
2024-01-27T12:22:11.651Z,8.50
2024-01-27T12:23:11.644Z,8.20
2024-01-27T12:24:11.678Z,9.30
2024-01-27T12:25:11.640Z,10.00
2024-01-27T12:26:11.596Z,8.70
2024-01-27T12:27:11.589Z,8.50
2024-01-27T12:28:11.575Z,8.60
2024-01-27T12:29:11.576Z,9.10
2024-01-27T12:30:11.697Z,7.80
2024-01-27T12:31:11.634Z,10.20
2024-01-27T12:32:11.522Z,8.50
2024-01-27T12:33:11.625Z,7.30
2024-01-27T12:34:11.689Z,8.40
2024-01-27T12:35:11.624Z,8.70
2024-01-27T12:36:11.483Z,7.90
2024-01-27T12:37:11.572Z,8.90
2024-01-27T12:38:11.490Z,11.30
2024-01-27T12:39:11.495Z,8.20
2024-01-27T12:40:11.430Z,8.10
2024-01-27T12:41:11.408Z,7.60
2024-01-27T12:42:11.426Z,8.10
2024-01-27T12:43:11.407Z,7.80
2024-01-27T12:44:11.473Z,7.50
2024-01-27T12:45:11.389Z,10.60
2024-01-27T12:46:11.350Z,9.60
2024-01-27T12:47:11.335Z,8.90
2024-01-27T12:48:11.503Z,7.40
2024-01-27T12:49:11.464Z,9.50
2024-01-27T12:50:11.798Z,8.00
2024-01-27T12:51:11.376Z,8.50
2024-01-27T12:52:11.274Z,8.70
2024-01-27T12:53:11.292Z,9.80
2024-01-27T12:54:11.290Z,9.90
2024-01-27T12:55:11.234Z,8.50
2024-01-27T12:56:11.216Z,8.60
2024-01-27T12:57:11.300Z,8.50
2024-01-27T12:58:11.211Z,7.70
2024-01-27T12:59:11.206Z,10.20
2024-01-27T13:00:11.372Z,9.40
2024-01-27T13:01:11.255Z,8.30
2024-01-27T13:02:11.158Z,9.10